Time;durP1;ratioP1;P1;durP2;ratioP2;P2;SDS_P1;SDS_P2;PMS_P1;PMS_P2;Temp;Humidity;BMP_temperature;BMP_pressure;BME280_temperature;BME280_humidity;BME280_pressure;Samples;Min_cycle;Max_cycle;Signal;HPM_P1;HPM_P2
2022/11/25 00:01:23;;;;;;;41.03;20.02;;;;;;;5.46;79.38;99941.69;4482653;32;34688;-76
2022/11/25 00:03:52;;;;;;;36.28;18.40;;;;;;;5.37;79.71;99943.62;4484017;32;32931;-75
2022/11/25 00:06:38;;;;;;;41.53;20.08;;;;;;;5.61;78.91;99950.41;4482755;32;33556;-78
2022/11/25 00:09:09;;;;;;;38.22;17.52;;;;;;;5.78;78.17;99945.50;4480885;32;34151;-77
2022/11/25 00:11:39;;;;;;;39.40;17.73;;;;;;;4.95;80.57;99945.06;4481727;32;34000;-80
2022/11/25 00:14:09;;;;;;;32.88;16.20;;;;;;;4.70;83.60;99938.22;4483977;32;33044;-79
2022/11/25 00:16:36;;;;;;;36.90;16.80;;;;;;;4.05;86.10;99941.28;4483728;32;34651;-78
2022/11/25 00:19:04;;;;;;;33.33;17.33;;;;;;;3.55;89.08;99938.47;4484546;32;34198;-77
2022/11/25 00:21:32;;;;;;;42.17;18.15;;;;;;;3.86;88.80;99945.88;4483996;32;33619;-77
2022/11/25 00:24:05;;;;;;;31.52;15.85;;;;;;;3.64;89.71;99949.41;4483780;32;34510;-77
2022/11/25 00:26:34;;;;;;;35.42;17.25;;;;;;;3.50;90.65;99955.19;4482006;31;33705;-80
2022/11/25 00:29:05;;;;;;;35.00;16.45;;;;;;;3.64;90.62;99953.66;4487342;31;33515;-80
2022/11/25 00:31:36;;;;;;;36.22;17.15;;;;;;;3.73;90.24;99960.34;4495894;31;34628;-77
2022/11/25 00:34:04;;;;;;;33.28;16.80;;;;;;;4.02;89.28;99964.16;4488952;31;34514;-76
2022/11/25 00:36:35;;;;;;;31.37;15.85;;;;;;;4.47;85.98;99970.81;4490415;31;34350;-79
2022/11/25 00:39:10;;;;;;;35.60;17.67;;;;;;;4.12;87.75;99973.41;4483669;31;33374;-78
2022/11/25 00:44:37;;;;;;;31.98;15.68;;;;;;;3.57;90.54;99959.97;4491294;31;33775;-77
2022/11/25 00:47:17;;;;;;;34.72;15.50;;;;;;;3.20;92.68;99980.22;4488903;31;33957;-79
2022/11/25 00:49:50;;;;;;;36.35;17.33;;;;;;;3.27;93.38;99977.38;4485538;31;32212;-75
2022/11/25 00:52:19;;;;;;;33.72;16.98;;;;;;;3.37;93.21;99972.97;4489715;31;33986;-79
2022/11/25 00:54:48;;;;;;;35.40;17.23;;;;;;;3.13;94.23;99980.56;4479795;31;33078;-77
2022/11/25 00:57:18;;;;;;;36.15;17.08;;;;;;;3.02;95.53;99979.72;4494445;31;34639;-77
2022/11/25 00:59:45;;;;;;;36.22;17.27;;;;;;;2.94;96.92;99976.56;4495135;31;33183;-78
2022/11/25 01:02:14;;;;;;;37.47;17.37;;;;;;;3.23;95.84;99980.47;4486295;31;33741;-77
2022/11/25 01:04:43;;;;;;;38.60;17.48;;;;;;;3.43;94.11;99983.66;4492934;31;33988;-77
2022/11/25 01:07:14;;;;;;;36.97;16.40;;;;;;;3.30;95.35;99990.41;4485992;31;33559;-79
2022/11/25 01:09:42;;;;;;;35.00;17.50;;;;;;;3.35;94.44;99994.19;4484634;31;33619;-79
2022/11/25 01:12:09;;;;;;;31.20;15.85;;;;;;;3.11;96.16;100000.00;4488728;31;34525;-77
2022/11/25 01:14:36;;;;;;;34.72;16.58;;;;;;;3.32;95.76;99999.09;4487994;31;34660;-78
2022/11/25 01:17:05;;;;;;;37.75;16.40;;;;;;;3.37;95.10;100007.13;4486416;31;33834;-77
2022/11/25 01:19:33;;;;;;;32.72;17.55;;;;;;;3.27;95.67;99997.84;4495258;31;34213;-78
2022/11/25 01:22:01;;;;;;;38.10;17.35;;;;;;;3.37;94.61;99998.56;4483171;31;34793;-77
2022/11/25 01:24:29;;;;;;;35.75;16.83;;;;;;;3.55;94.21;100005.06;4484133;31;33749;-76
2022/11/25 01:26:56;;;;;;;35.90;16.48;;;;;;;4.36;91.12;100002.50;4481613;31;32326;-78
2022/11/25 01:29:24;;;;;;;33.30;17.02;;;;;;;4.85;87.26;99994.88;4495066;31;34101;-80
2022/11/25 01:31:56;;;;;;;36.17;17.02;;;;;;;4.27;88.06;100000.16;4483948;31;34727;-80
2022/11/25 01:34:25;;;;;;;35.45;16.87;;;;;;;3.73;91.41;100000.44;4469651;31;33847;-78
2022/11/25 01:36:56;;;;;;;35.88;17.37;;;;;;;3.58;92.90;100002.75;4480634;31;33685;-79
2022/11/25 01:39:24;;;;;;;42.20;18.83;;;;;;;3.77;93.21;99998.97;4482586;31;33995;-79
2022/11/25 01:41:59;;;;;;;37.35;17.90;;;;;;;4.16;88.33;100002.75;4483873;31;33608;-77
2022/11/25 01:44:27;;;;;;;35.05;17.58;;;;;;;4.31;89.38;100002.16;4472549;31;32475;-79
2022/11/25 01:47:15;;;;;;;35.10;18.33;;;;;;;3.87;89.14;100002.34;4487919;31;34219;-78
2022/11/25 01:49:44;;;;;;;38.05;19.15;;;;;;;3.15;94.06;100002.91;4476629;31;34377;-79
2022/11/25 01:52:26;;;;;;;34.42;18.50;;;;;;;3.23;94.66;100008.62;4482009;31;33998;-78
2022/11/25 01:54:59;;;;;;;41.50;18.70;;;;;;;3.25;95.39;100009.66;4487663;31;34265;-80
2022/11/25 01:57:55;;;;;;;35.45;16.92;;;;;;;4.25;90.22;100005.94;4481665;31;33925;-78
2022/11/25 02:00:24;;;;;;;33.72;16.00;;;;;;;4.80;84.70;100002.22;4483469;31;32855;-78
2022/11/25 02:02:54;;;;;;;34.47;17.48;;;;;;;5.11;82.91;99994.09;4476877;31;34641;-78
2022/11/25 02:05:35;;;;;;;34.30;19.08;;;;;;;4.36;85.93;99997.38;4461517;31;31985;-80
2022/11/25 02:08:03;;;;;;;37.85;19.60;;;;;;;5.02;83.33;99999.50;4478455;31;34671;-77
2022/11/25 02:10:31;;;;;;;33.72;17.87;;;;;;;4.77;84.15;99995.97;4476673;31;32972;-80
2022/11/25 02:12:59;;;;;;;35.05;17.83;;;;;;;5.21;81.49;99996.50;4486042;31;33856;-79
2022/11/25 02:15:28;;;;;;;36.05;17.77;;;;;;;4.30;83.46;99994.37;4475169;31;32059;-78
2022/11/25 02:17:55;;;;;;;37.45;17.52;;;;;;;3.33;89.13;100003.44;4479281;31;33574;-77
2022/11/25 02:20:24;;;;;;;39.10;18.17;;;;;;;2.82;93.00;100006.31;4484496;31;33508;-78
2022/11/25 02:23:29;;;;;;;36.38;18.20;;;;;;;3.99;86.74;100009.19;4474307;31;33995;-79
2022/11/25 02:25:58;;;;;;;42.90;20.35;;;;;;;2.83;93.83;100007.19;4476182;31;34057;-79
2022/11/25 02:28:29;;;;;;;37.42;19.12;;;;;;;2.78;94.77;100014.50;4482932;31;34393;-76
2022/11/25 02:30:57;;;;;;;40.60;19.83;;;;;;;2.84;94.57;100015.00;4477932;31;32836;-80
2022/11/25 02:33:26;;;;;;;38.58;18.05;;;;;;;2.84;95.17;100015.00;4484822;31;33484;-79
2022/11/25 02:35:57;;;;;;;40.75;19.92;;;;;;;2.66;96.15;100018.66;4479537;31;33703;-78
2022/11/25 02:38:35;;;;;;;40.10;18.50;;;;;;;2.73;97.59;100016.69;4479381;31;34641;-79
2022/11/25 02:41:15;;;;;;;38.65;18.25;;;;;;;3.21;96.35;100012.75;4484019;32;33549;-75
2022/11/25 02:43:43;;;;;;;37.35;17.85;;;;;;;3.96;91.54;100007.28;4479821;31;33851;-78
2022/11/25 02:46:13;;;;;;;39.00;18.48;;;;;;;5.12;84.33;100008.75;4481840;32;33526;-77
2022/11/25 02:48:49;;;;;;;32.70;16.37;;;;;;;5.25;82.78;100008.81;4484350;31;33626;-79
2022/11/25 02:51:37;;;;;;;41.47;18.85;;;;;;;5.05;83.69;100011.66;4483520;31;33163;-78
2022/11/25 02:54:05;;;;;;;36.50;17.37;;;;;;;4.91;83.70;100016.72;4481037;32;33676;-78
2022/11/25 02:56:34;;;;;;;36.53;18.50;;;;;;;4.86;83.40;100007.78;4475751;32;34573;-80
2022/11/25 02:59:02;;;;;;;39.53;19.27;;;;;;;4.44;85.68;100006.53;4484365;31;33822;-78
2022/11/25 03:01:30;;;;;;;37.22;17.58;;;;;;;4.10;86.63;100004.06;4484511;32;33369;-78
2022/11/25 03:03:58;;;;;;;43.72;18.70;;;;;;;3.16;93.42;100024.28;4484828;31;34530;-78
2022/11/25 03:06:28;;;;;;;41.50;18.80;;;;;;;3.29;94.67;100016.78;4483497;31;33803;-77
2022/11/25 03:08:56;;;;;;;39.38;17.45;;;;;;;2.97;95.34;100011.72;4479516;31;33439;-78
2022/11/25 03:12:17;;;;;;;44.13;18.83;;;;;;;3.16;96.93;100008.94;4485526;32;32877;-79
2022/11/25 03:14:13;;;;;;;42.13;19.77;;;;;;;2.91;96.46;100011.25;4472792;32;32242;-79
2022/11/25 03:16:41;;;;;;;44.67;21.23;;;;;;;3.42;96.56;100020.25;4485506;32;33768;-80
2022/11/25 03:19:08;;;;;;;46.67;23.08;;;;;;;3.09;97.25;100020.37;4483952;32;34477;-79
2022/11/25 03:21:36;;;;;;;41.80;19.70;;;;;;;2.89;97.39;100023.03;4484597;32;33335;-76
2022/11/25 03:24:04;;;;;;;40.00;18.83;;;;;;;2.98;97.40;100025.44;4485178;32;34584;-76
2022/11/25 03:26:31;;;;;;;43.90;21.30;;;;;;;2.94;96.15;100027.75;4484869;32;34533;-78
2022/11/25 03:28:59;;;;;;;44.45;20.73;;;;;;;2.90;97.26;100028.28;4484690;32;34107;-77
2022/11/25 03:31:26;;;;;;;43.38;20.25;;;;;;;3.25;96.34;100025.00;4483057;32;34341;-75
2022/11/25 03:33:54;;;;;;;41.72;19.67;;;;;;;3.78;91.00;100028.97;4484876;32;34017;-79
2022/11/25 03:36:22;;;;;;;41.50;19.23;;;;;;;4.16;88.41;100042.06;4482836;32;33734;-77
2022/11/25 03:38:50;;;;;;;39.40;18.58;;;;;;;4.46;88.38;100039.97;4484614;32;34332;-77
2022/11/25 03:41:17;;;;;;;34.85;17.02;;;;;;;5.17;84.00;100051.00;4484943;32;33343;-75
2022/11/25 03:43:46;;;;;;;36.55;17.20;;;;;;;5.23;82.78;100048.88;4484206;32;34711;-78
2022/11/25 03:46:13;;;;;;;35.67;16.55;;;;;;;5.42;81.21;100045.03;4484643;32;34079;-78
2022/11/25 03:48:41;;;;;;;37.90;16.70;;;;;;;4.86;84.30;100047.97;4484892;32;33663;-77
2022/11/25 03:51:09;;;;;;;35.08;17.48;;;;;;;5.18;83.20;100047.69;4483716;32;33458;-76
2022/11/25 03:53:37;;;;;;;39.35;18.15;;;;;;;4.20;86.25;100045.75;4474103;32;33948;-75
2022/11/25 03:56:05;;;;;;;37.10;18.52;;;;;;;3.14;93.53;100059.09;4484940;32;34583;-77
2022/11/25 03:58:33;;;;;;;44.38;18.60;;;;;;;2.94;95.25;100063.56;4485238;32;34535;-79
2022/11/25 04:01:02;;;;;;;37.80;17.77;;;;;;;3.60;92.14;100070.34;4484686;32;33596;-76
2022/11/25 04:03:30;;;;;;;38.90;19.12;;;;;;;4.03;90.46;100063.34;4472244;32;34716;-79
2022/11/25 04:05:58;;;;;;;40.60;19.00;;;;;;;4.25;89.43;100062.34;4475473;32;33699;-79
2022/11/25 04:08:26;;;;;;;38.58;17.65;;;;;;;3.64;91.11;100068.91;4483097;32;32481;-76
2022/11/25 04:10:54;;;;;;;36.40;17.60;;;;;;;3.60;91.42;100070.34;4485047;32;33334;-76
2022/11/25 04:13:22;;;;;;;44.30;19.40;;;;;;;3.10;94.40;100069.88;4485191;32;33645;-78
2022/11/25 04:15:50;;;;;;;45.08;19.27;;;;;;;3.41;92.57;100073.16;4484593;32;34772;-76
2022/11/25 04:18:19;;;;;;;41.47;20.05;;;;;;;3.07;96.04;100074.75;4484442;32;33978;-77
2022/11/25 04:20:48;;;;;;;41.10;18.77;;;;;;;4.06;90.37;100071.25;4480934;32;33680;-78
2022/11/25 04:23:16;;;;;;;44.15;20.40;;;;;;;4.39;88.68;100074.53;4484653;32;33844;-78
2022/11/25 04:25:44;;;;;;;41.33;19.65;;;;;;;3.56;91.97;100077.69;4484755;32;33693;-77
2022/11/25 04:28:11;;;;;;;39.85;19.33;;;;;;;3.65;91.06;100088.63;4484783;32;34455;-77
2022/11/25 04:30:39;;;;;;;44.22;18.85;;;;;;;2.65;96.37;100083.38;4484493;32;33302;-77
2022/11/25 04:33:08;;;;;;;41.92;19.42;;;;;;;3.25;95.16;100078.75;4482263;32;33600;-79
2022/11/25 04:35:35;;;;;;;43.05;19.50;;;;;;;3.30;92.35;100095.38;4484230;32;33523;-76
2022/11/25 04:38:03;;;;;;;45.60;19.67;;;;;;;2.69;96.67;100095.66;4484925;32;34634;-75
2022/11/25 04:40:32;;;;;;;39.78;19.77;;;;;;;2.62;97.77;100099.34;4475241;32;33381;-80
2022/11/25 04:43:00;;;;;;;44.17;20.75;;;;;;;2.56;98.20;100107.41;4480743;32;33696;-77
2022/11/25 04:45:39;;;;;;;53.03;22.77;;;;;;;2.57;98.81;100100.66;4471096;32;32475;-77
2022/11/25 04:48:28;;;;;;;55.67;24.17;;;;;;;2.68;97.98;100109.19;4483118;32;34508;-79
2022/11/25 04:50:56;;;;;;;49.97;21.83;;;;;;;2.51;99.33;100121.53;4472453;32;33307;-77
2022/11/25 04:53:24;;;;;;;48.13;22.20;;;;;;;3.14;96.65;100123.09;4482120;32;33919;-77
2022/11/25 04:55:52;;;;;;;46.03;21.42;;;;;;;3.24;95.84;100132.41;4470239;32;34015;-79
2022/11/25 04:59:38;;;;;;;48.80;21.55;;;;;;;2.83;96.62;100133.44;4479877;32;33671;-78
2022/11/25 05:01:07;;;;;;;42.47;19.33;;;;;;;3.00;97.68;100139.94;4484153;32;34050;-79
2022/11/25 05:03:35;;;;;;;48.38;22.75;;;;;;;2.76;98.06;100143.94;4483974;32;34179;-78
2022/11/25 05:06:07;;;;;;;43.83;21.42;;;;;;;2.95;98.59;100144.69;4484537;32;34145;-77
2022/11/25 05:08:35;;;;;;;45.83;20.77;;;;;;;4.37;89.40;100147.03;4479605;32;34662;-75
2022/11/25 05:11:02;;;;;;;47.33;22.58;;;;;;;3.87;91.39;100148.44;4484647;32;34417;-76
2022/11/25 05:13:30;;;;;;;45.10;18.98;;;;;;;4.62;86.97;100154.88;4481939;32;33766;-76
2022/11/25 05:15:59;;;;;;;35.90;17.05;;;;;;;4.86;84.58;100146.38;4484260;32;34664;-79
2022/11/25 05:18:26;;;;;;;42.13;17.75;;;;;;;4.90;83.47;100148.38;4484087;32;33834;-78
2022/11/25 05:20:54;;;;;;;44.78;18.40;;;;;;;4.98;82.96;100155.75;4482464;32;33569;-78
2022/11/25 05:23:21;;;;;;;42.20;18.67;;;;;;;4.87;83.06;100161.03;4484478;32;33854;-80
2022/11/25 05:25:49;;;;;;;41.97;19.12;;;;;;;4.91;82.67;100165.59;4483455;32;34702;-79
2022/11/25 05:28:18;;;;;;;41.95;19.33;;;;;;;4.48;84.00;100167.56;4484075;32;33924;-79
2022/11/25 05:30:47;;;;;;;46.00;20.83;;;;;;;4.55;84.25;100160.31;4484492;31;33382;-78
2022/11/25 05:33:14;;;;;;;43.47;21.62;;;;;;;4.47;84.74;100165.78;4485676;31;34112;-76
2022/11/25 05:35:43;;;;;;;45.38;22.40;;;;;;;4.39;84.55;100177.13;4484229;32;33979;-80
2022/11/25 05:38:10;;;;;;;47.28;23.40;;;;;;;3.32;88.83;100180.91;4483862;32;34323;-76
2022/11/25 05:40:38;;;;;;;49.83;24.92;;;;;;;2.39;96.10;100186.97;4489385;31;33275;-78
2022/11/25 05:43:05;;;;;;;50.78;23.92;;;;;;;2.46;97.29;100191.81;4477970;31;33945;-76
2022/11/25 05:45:33;;;;;;;53.50;25.20;;;;;;;2.30;98.44;100197.34;4483640;31;34271;-76
2022/11/25 05:48:02;;;;;;;52.67;25.37;;;;;;;2.34;99.27;100199.38;4483914;31;32069;-78
2022/11/25 05:50:31;;;;;;;51.35;24.27;;;;;;;2.35;98.82;100200.25;4486239;31;33134;-78
2022/11/25 05:53:02;;;;;;;51.78;22.75;;;;;;;2.44;98.53;100201.03;4486559;31;34470;-79
2022/11/25 05:55:29;;;;;;;50.20;22.65;;;;;;;2.48;98.51;100202.19;4472802;32;34653;-78
2022/11/25 05:57:58;;;;;;;52.67;24.15;;;;;;;2.32;98.66;100200.03;4482999;32;34111;-75
2022/11/25 06:00:26;;;;;;;53.05;23.62;;;;;;;2.42;97.88;100211.91;4485819;32;34380;-77
2022/11/25 06:02:53;;;;;;;45.80;22.87;;;;;;;2.31;97.92;100218.69;4483558;32;32276;-79
2022/11/25 06:05:21;;;;;;;49.25;20.83;;;;;;;2.65;96.34;100216.37;4485764;32;33991;-76
2022/11/25 06:07:49;;;;;;;42.10;20.95;;;;;;;2.81;94.97;100209.19;4466732;32;33912;-78
2022/11/25 06:10:17;;;;;;;48.15;20.02;;;;;;;2.92;93.28;100212.63;4483712;32;34137;-77
2022/11/25 06:12:45;;;;;;;41.25;20.23;;;;;;;2.70;94.51;100215.06;4482589;32;34598;-79
2022/11/25 06:15:13;;;;;;;47.53;21.25;;;;;;;2.93;93.78;100215.28;4484048;32;33843;-79
2022/11/25 06:17:41;;;;;;;50.10;23.30;;;;;;;3.03;92.20;100226.28;4484970;32;33671;-79
2022/11/25 06:20:09;;;;;;;55.50;24.02;;;;;;;2.97;92.07;100223.22;4483694;32;33535;-78
2022/11/25 06:22:37;;;;;;;48.38;22.90;;;;;;;3.01;92.33;100227.81;4474963;32;33925;-78
2022/11/25 06:25:07;;;;;;;49.65;22.65;;;;;;;3.04;91.51;100225.53;4483279;32;34040;-79
2022/11/25 06:27:34;;;;;;;44.88;21.58;;;;;;;3.25;90.10;100224.69;4485360;32;33910;-76
2022/11/25 06:30:22;;;;;;;46.05;20.00;;;;;;;2.76;92.25;100243.72;4484363;32;34436;-74
2022/11/25 06:32:53;;;;;;;47.83;21.55;;;;;;;2.58;93.07;100247.31;4481509;32;32248;-78
2022/11/25 06:35:21;;;;;;;46.00;20.17;;;;;;;2.50;93.38;100244.13;4479724;32;33647;-78
2022/11/25 06:37:49;;;;;;;44.78;20.70;;;;;;;2.72;92.77;100259.59;4483818;32;33833;-76
2022/11/25 06:40:17;;;;;;;47.30;19.85;;;;;;;3.01;92.03;100253.41;4485096;32;34205;-79
2022/11/25 06:42:44;;;;;;;43.53;20.45;;;;;;;3.30;90.38;100245.53;4482339;32;34446;-76
2022/11/25 06:45:12;;;;;;;43.97;20.58;;;;;;;4.03;86.94;100245.34;4484553;32;33960;-79
2022/11/25 06:47:39;;;;;;;42.30;19.67;;;;;;;4.64;83.90;100243.13;4484431;32;34586;-79
2022/11/25 06:50:07;;;;;;;41.17;19.08;;;;;;;4.62;83.14;100248.13;4485363;32;34330;-77
2022/11/25 06:52:34;;;;;;;46.58;19.73;;;;;;;4.11;84.54;100257.09;4482773;32;33825;-77
2022/11/25 06:55:03;;;;;;;45.05;20.73;;;;;;;3.74;86.63;100259.31;4485397;32;35257;-78
2022/11/25 06:57:31;;;;;;;39.88;19.42;;;;;;;3.47;88.81;100252.00;4475671;32;33571;-80
2022/11/25 06:59:59;;;;;;;47.00;21.27;;;;;;;3.09;91.78;100258.41;4484934;32;33641;-77
2022/11/25 07:02:26;;;;;;;47.72;20.62;;;;;;;3.33;91.48;100262.03;4485604;32;33368;-77
2022/11/25 07:04:54;;;;;;;45.22;21.48;;;;;;;3.64;91.14;100261.94;4485833;32;33914;-78
2022/11/25 07:07:21;;;;;;;50.83;21.00;;;;;;;3.82;90.21;100259.03;4485462;32;34469;-79
2022/11/25 07:09:49;;;;;;;49.55;21.80;;;;;;;3.81;90.19;100270.09;4484514;32;33386;-78
2022/11/25 07:12:16;;;;;;;46.40;20.58;;;;;;;3.68;91.86;100274.22;4480497;32;34719;-80
2022/11/25 07:14:44;;;;;;;44.63;20.98;;;;;;;4.13;90.14;100276.06;4485620;32;33848;-78
2022/11/25 07:17:12;;;;;;;46.50;21.77;;;;;;;4.65;87.93;100281.69;4485490;32;33712;-79
2022/11/25 07:19:39;;;;;;;42.17;19.87;;;;;;;4.75;86.89;100277.28;4482634;32;33516;-79
2022/11/25 07:22:07;;;;;;;41.20;18.92;;;;;;;4.51;87.24;100275.53;4484800;32;34521;-77
2022/11/25 07:24:35;;;;;;;44.50;22.30;;;;;;;4.45;88.45;100282.75;4482882;32;34012;-77
2022/11/25 07:27:05;;;;;;;43.85;21.67;;;;;;;5.26;85.15;100277.69;4485281;32;34727;-78
2022/11/25 07:29:34;;;;;;;40.17;18.80;;;;;;;5.43;83.79;100283.19;4484558;32;34210;-77
2022/11/25 07:32:21;;;;;;;43.72;20.25;;;;;;;4.93;86.18;100289.81;4484462;32;34483;-77
2022/11/25 07:34:50;;;;;;;41.90;19.17;;;;;;;5.17;84.27;100283.81;4484357;32;33898;-76
2022/11/25 07:37:17;;;;;;;44.13;18.65;;;;;;;4.98;86.97;100279.00;4483483;32;33807;-80
2022/11/25 07:39:46;;;;;;;43.58;19.23;;;;;;;5.36;83.64;100270.66;4484805;32;34682;-78
2022/11/25 07:42:13;;;;;;;36.83;18.48;;;;;;;4.80;86.36;100284.53;4484990;32;33926;-77
2022/11/25 07:44:41;;;;;;;39.83;18.62;;;;;;;4.42;89.41;100284.19;4483893;32;32470;-77
2022/11/25 07:47:09;;;;;;;51.83;24.05;;;;;;;4.34;90.97;100281.03;4483891;32;33736;-77
2022/11/25 07:49:38;;;;;;;48.05;20.70;;;;;;;5.60;84.11;100279.25;4475967;32;33494;-76
2022/11/25 07:52:06;;;;;;;43.45;20.77;;;;;;;5.00;86.08;100283.44;4484852;32;34497;-80
2022/11/25 07:54:33;;;;;;;49.08;22.83;;;;;;;5.52;84.97;100288.97;4484739;32;34570;-76
2022/11/25 07:57:01;;;;;;;49.15;23.20;;;;;;;5.99;82.61;100276.09;4484839;32;34073;-76
2022/11/25 07:59:28;;;;;;;44.10;21.27;;;;;;;5.61;84.87;100281.94;4471833;32;33442;-75
2022/11/25 08:01:56;;;;;;;44.22;20.70;;;;;;;6.50;80.85;100283.06;4479635;31;34630;-78
2022/11/25 08:04:24;;;;;;;42.33;20.17;;;;;;;6.01;82.61;100284.81;4478287;32;33681;-80
2022/11/25 08:06:52;;;;;;;41.33;19.50;;;;;;;6.19;82.33;100286.88;4472038;32;34425;-76
2022/11/25 08:09:21;;;;;;;40.78;19.77;;;;;;;6.55;81.16;100280.81;4484291;32;33541;-79
2022/11/25 08:11:49;;;;;;;42.67;20.70;;;;;;;5.91;82.90;100288.37;4490465;31;34516;-77
2022/11/25 08:14:17;;;;;;;48.63;20.95;;;;;;;6.85;79.81;100281.97;4483045;32;33814;-77
2022/11/25 08:16:44;;;;;;;41.10;19.48;;;;;;;6.00;83.04;100282.13;4484418;32;33651;-79
2022/11/25 08:19:14;;;;;;;42.08;20.42;;;;;;;6.45;81.29;100289.59;4484432;32;34056;-76
2022/11/25 08:21:42;;;;;;;41.97;19.42;;;;;;;6.05;83.08;100286.81;4484263;32;33735;-77
2022/11/25 08:24:14;;;;;;;42.67;19.02;;;;;;;5.96;83.24;100296.44;4483702;32;33664;-77
2022/11/25 08:26:42;;;;;;;37.67;18.65;;;;;;;5.39;87.02;100299.13;4480417;32;34160;-77
2022/11/25 08:29:14;;;;;;;37.60;17.62;;;;;;;5.58;86.58;100306.50;4484336;32;34272;-78
2022/11/25 08:31:41;;;;;;;36.72;18.10;;;;;;;5.51;87.03;100310.31;4472502;32;34432;-80
2022/11/25 08:34:16;;;;;;;37.08;17.87;;;;;;;6.04;84.81;100303.00;4477911;32;33795;-77
2022/11/25 08:36:44;;;;;;;38.10;17.20;;;;;;;6.01;83.81;100307.94;4481676;32;33810;-78
2022/11/25 08:39:15;;;;;;;38.17;17.23;;;;;;;6.57;82.89;100304.97;4483714;32;34338;-80
2022/11/25 08:42:04;;;;;;;42.25;18.17;;;;;;;6.27;83.50;100309.78;4477295;32;34689;-80
2022/11/25 08:44:32;;;;;;;36.38;18.05;;;;;;;6.79;82.26;100307.31;4482394;31;33588;-74
2022/11/25 08:46:59;;;;;;;36.50;18.12;;;;;;;6.99;80.43;100305.19;4484367;32;33910;-76
2022/11/25 08:49:29;;;;;;;44.00;19.12;;;;;;;6.10;84.49;100305.13;4484087;32;33529;-77
2022/11/25 08:51:59;;;;;;;36.67;18.52;;;;;;;6.51;83.48;100302.00;4484871;32;33503;-77
2022/11/25 08:54:27;;;;;;;35.95;16.40;;;;;;;6.29;84.63;100297.03;4484289;32;34033;-75
2022/11/25 08:56:55;;;;;;;38.78;18.50;;;;;;;6.80;83.51;100298.81;4483978;32;34484;-75
2022/11/25 08:59:24;;;;;;;39.05;18.67;;;;;;;6.64;83.54;100301.13;4483220;32;33904;-75
2022/11/25 09:01:51;;;;;;;37.95;18.75;;;;;;;6.91;82.08;100302.09;4484145;32;33534;-77
2022/11/25 09:04:19;;;;;;;37.63;18.15;;;;;;;6.57;84.40;100299.81;4484842;32;33800;-75
2022/11/25 09:06:46;;;;;;;38.97;18.17;;;;;;;7.18;82.81;100292.75;4484495;32;34441;-77
2022/11/25 09:09:14;;;;;;;33.05;16.65;;;;;;;6.56;84.68;100298.03;4484396;32;33333;-75
2022/11/25 09:11:41;;;;;;;34.20;16.83;;;;;;;6.78;82.97;100305.56;4484459;32;33878;-74
2022/11/25 09:14:08;;;;;;;32.45;16.40;;;;;;;7.32;81.60;100301.41;4484164;32;34761;-74
2022/11/25 09:16:36;;;;;;;31.80;15.57;;;;;;;6.75;83.48;100307.03;4482666;32;33910;-75
2022/11/25 09:19:05;;;;;;;31.77;15.45;;;;;;;6.93;83.09;100309.94;4483827;32;32280;-75
2022/11/25 09:21:32;;;;;;;32.97;15.95;;;;;;;7.63;80.78;100303.38;4484276;32;33866;-75
2022/11/25 09:24:00;;;;;;;33.15;15.57;;;;;;;7.34;82.04;100304.06;4481105;32;34643;-77
2022/11/25 09:26:30;;;;;;;26.67;13.30;;;;;;;8.11;79.13;100303.81;4482019;32;33621;-74
2022/11/25 09:28:57;;;;;;;26.80;13.62;;;;;;;7.58;79.35;100304.78;4484150;31;33228;-76
2022/11/25 09:31:25;;;;;;;28.38;13.82;;;;;;;7.28;81.17;100296.81;4488006;31;33646;-77
2022/11/25 09:33:52;;;;;;;32.00;14.82;;;;;;;7.47;80.10;100301.50;4489935;31;33639;-76
2022/11/25 09:36:22;;;;;;;25.95;14.52;;;;;;;7.35;81.65;100295.56;4485442;31;34547;-75
2022/11/25 09:38:50;;;;;;;28.90;13.82;;;;;;;7.44;82.24;100296.16;4480132;31;33400;-79
2022/11/25 09:47:47;;;;;;;26.30;12.95;;;;;;;8.20;79.54;100291.50;4485923;31;33932;-77
2022/11/25 09:50:40;;;;;;;23.40;12.37;;;;;;;8.54;76.17;100286.75;4470651;31;33548;-74
2022/11/25 09:53:20;;;;;;;;;;;;;;;8.29;77.16;100284.31;4481518;31;34767;-75
2022/11/25 09:55:49;;;;;;;28.20;13.30;;;;;;;8.52;77.84;100282.25;4476619;31;33875;-77
2022/11/25 09:58:32;;;;;;;25.05;13.48;;;;;;;8.99;75.32;100274.78;4486844;31;33840;-75
2022/11/25 10:01:04;;;;;;;26.23;13.27;;;;;;;8.25;77.79;100278.06;4485516;31;33151;-78
2022/11/25 10:03:32;;;;;;;26.20;12.23;;;;;;;8.92;75.94;100274.31;4470136;31;33618;-77
2022/11/25 10:06:17;;;;;;;27.62;13.68;;;;;;;7.99;79.69;100289.34;4487828;31;34597;-78
2022/11/25 10:08:57;;;;;;;28.02;13.02;;;;;;;8.29;79.28;100289.50;4478629;31;34046;-74
2022/11/25 10:11:45;;;;;;;28.85;14.48;;;;;;;8.06;80.70;100291.53;4474702;31;32695;-76
2022/11/25 10:14:29;;;;;;;26.87;14.27;;;;;;;8.03;81.33;100291.31;4491287;31;33975;-77
2022/11/25 10:17:02;;;;;;;30.83;14.43;;;;;;;7.95;80.81;100289.94;4484585;31;34795;-76
2022/11/25 10:19:54;;;;;;;28.65;13.82;;;;;;;8.35;80.71;100289.84;4473465;31;33501;-77
2022/11/25 10:22:24;;;;;;;28.87;15.13;;;;;;;8.50;79.49;100286.44;4475954;31;32903;-77
2022/11/25 10:24:56;;;;;;;32.08;14.87;;;;;;;8.48;79.81;100285.47;4484718;31;34638;-75
2022/11/25 10:27:39;;;;;;;26.58;14.23;;;;;;;8.54;79.71;100286.75;4485347;31;33965;-75
2022/11/25 10:30:20;;;;;;;27.20;13.57;;;;;;;9.10;77.74;100280.59;4479151;31;33811;-77
2022/11/25 10:33:01;;;;;;;25.08;12.02;;;;;;;10.33;72.37;100277.06;4470737;31;33492;-78
2022/11/25 10:35:34;;;;;;;22.80;12.00;;;;;;;10.38;70.97;100285.09;4483001;31;33824;-78
2022/11/25 10:38:05;;;;;;;20.92;9.75;;;;;;;9.44;73.76;100279.91;4492507;31;33913;-76
2022/11/25 10:40:33;;;;;;;19.80;9.45;;;;;;;9.15;74.58;100284.31;4481708;31;34679;-74
2022/11/25 10:43:04;;;;;;;15.45;6.72;;;;;;;9.13;74.38;100285.03;4495846;31;33752;-75
2022/11/25 10:45:39;;;;;;;17.85;8.07;;;;;;;9.78;72.21;100280.13;4480875;31;33541;-76
2022/11/25 10:48:29;;;;;;;16.77;8.18;;;;;;;10.14;70.48;100275.19;4492466;31;32784;-78
2022/11/25 10:51:36;;;;;;;16.90;7.40;;;;;;;10.52;68.85;100291.00;4488844;31;34433;-77
2022/11/25 10:54:21;;;;;;;17.62;8.05;;;;;;;10.73;68.46;100294.72;4484394;31;34414;-76
2022/11/25 10:57:18;;;;;;;21.02;9.90;;;;;;;10.13;70.29;100288.06;4492758;31;33729;-75
2022/11/25 10:59:57;;;;;;;16.52;8.98;;;;;;;9.50;72.76;100288.03;4488092;31;34029;-76
2022/11/25 11:02:34;;;;;;;26.10;12.95;;;;;;;10.28;70.43;100296.66;4491777;31;33924;-78
2022/11/25 11:05:17;;;;;;;23.00;12.68;;;;;;;9.94;73.00;100294.78;4483567;32;32103;-78
2022/11/25 11:07:45;;;;;;;27.87;14.20;;;;;;;9.42;74.10;100291.87;4477181;32;34573;-75
2022/11/25 11:10:13;;;;;;;27.95;15.38;;;;;;;9.20;76.01;100302.69;4477444;32;33683;-77
2022/11/25 11:13:03;;;;;;;26.80;13.90;;;;;;;9.07;77.02;100306.22;4480515;32;34105;-76
2022/11/25 11:15:40;;;;;;;25.00;13.82;;;;;;;8.95;77.10;100303.81;4472854;32;34213;-75
2022/11/25 11:18:29;;;;;;;26.42;12.88;;;;;;;9.10;77.38;100306.44;4491713;31;34430;-75
2022/11/25 11:20:58;;;;;;;28.00;13.82;;;;;;;9.41;76.34;100303.03;4479278;32;33463;-76
2022/11/25 11:23:27;;;;;;;29.00;15.00;;;;;;;9.14;76.57;100303.22;4482954;32;33902;-76
2022/11/25 11:25:58;;;;;;;29.40;15.45;;;;;;;9.24;76.26;100305.53;4484242;32;33181;-76
2022/11/25 11:28:38;;;;;;;29.25;14.93;;;;;;;9.81;74.30;100301.00;4481642;32;33286;-73
2022/11/25 11:31:16;;;;;;;27.75;13.38;;;;;;;9.54;75.32;100304.59;4485044;31;33829;-78
2022/11/25 11:33:47;;;;;;;25.95;13.82;;;;;;;10.02;73.72;100301.31;4478665;31;34721;-77
2022/11/25 11:36:20;;;;;;;28.58;14.60;;;;;;;10.49;70.94;100304.72;4483737;32;33643;-75
2022/11/25 11:39:05;;;;;;;24.65;13.68;;;;;;;9.57;75.24;100300.50;4483690;32;34524;-76
2022/11/25 11:41:39;;;;;;;31.67;13.82;;;;;;;10.01;74.12;100302.09;4481513;32;33807;-75
2022/11/25 11:44:44;;;;;;;29.80;13.63;;;;;;;9.77;73.92;100305.91;4483445;32;33572;-76
2022/11/25 11:47:27;;;;;;;24.42;12.68;;;;;;;10.02;74.28;100309.06;4482651;32;32016;-75